Time;durP1;ratioP1;P1;durP2;ratioP2;P2;SDS_P1;SDS_P2;PMS_P1;PMS_P2;Temp;Humidity;BMP_temperature;BMP_pressure;BME280_temperature;BME280_humidity;BME280_pressure;Samples;Min_cycle;Max_cycle;Signal;HPM_P1;HPM_P2
2021/12/06 00:01:09;;;;;;;0.00;0.00;;;;;;;;;;5015057;28;20200;-76
2021/12/06 00:03:39;;;;;;;0.47;0.47;;;;;;;;;;5019100;28;20350;-77
2021/12/06 00:06:06;;;;;;;0.77;0.60;;;;;;;;;;5016791;28;20206;-76
2021/12/06 00:08:34;;;;;;;0.30;0.20;;;;;;;;;;5019840;28;20200;-76
2021/12/06 00:11:07;;;;;;;0.00;0.00;;;;;;;;;;5015121;28;20200;-76
2021/12/06 00:13:35;;;;;;;0.00;0.00;;;;;;;;;;5016659;28;20212;-76
2021/12/06 00:16:06;;;;;;;0.00;0.00;;;;;;;;;;5025938;28;20688;-76
2021/12/06 00:18:34;;;;;;;0.00;0.00;;;;;;;;;;5017093;28;20276;-75
2021/12/06 00:21:01;;;;;;;0.00;0.00;;;;;;;;;;5019117;28;20208;-75
2021/12/06 00:23:31;;;;;;;0.00;0.00;;;;;;;;;;5021323;28;20649;-76
2021/12/06 00:25:58;;;;;;;0.00;0.00;;;;;;;;;;5024711;28;20208;-74
2021/12/06 00:28:27;;;;;;;0.00;0.00;;;;;;;;;;5021413;28;20689;-74
2021/12/06 00:30:56;;;;;;;0.00;0.00;;;;;;;;;;5020468;28;20206;-76
2021/12/06 00:33:24;;;;;;;0.00;0.00;;;;;;;;;;5020022;28;20196;-77
2021/12/06 00:35:51;;;;;;;0.00;0.00;;;;;;;;;;5019411;28;20255;-75
2021/12/06 00:38:19;;;;;;;0.00;0.00;;;;;;;;;;5024273;28;20226;-77
2021/12/06 00:40:47;;;;;;;0.00;0.00;;;;;;;;;;5019806;28;20208;-75
2021/12/06 00:43:16;;;;;;;0.00;0.00;;;;;;;;;;5019749;28;20251;-74
2021/12/06 00:45:46;;;;;;;0.00;0.00;;;;;;;;;;5019376;28;20662;-75
2021/12/06 00:48:13;;;;;;;0.00;0.00;;;;;;;;;;5024366;28;20325;-76
2021/12/06 00:50:42;;;;;;;0.00;0.00;;;;;;;;;;5021432;28;20215;-75
2021/12/06 00:53:10;;;;;;;0.00;0.00;;;;;;;;;;5018976;28;20204;-73
2021/12/06 00:55:38;;;;;;;0.20;0.20;;;;;;;;;;5025293;28;20220;-73
2021/12/06 00:58:06;;;;;;;0.00;0.00;;;;;;;;;;5021605;28;20231;-72
2021/12/06 01:00:36;;;;;;;0.00;0.00;;;;;;;;;;5019867;28;20197;-73
2021/12/06 01:03:06;;;;;;;0.00;0.00;;;;;;;;;;5018410;28;20208;-76
2021/12/06 01:05:34;;;;;;;0.00;0.00;;;;;;;;;;5018038;28;20204;-75
2021/12/06 01:08:01;;;;;;;0.00;0.00;;;;;;;;;;5023343;28;20673;-74
2021/12/06 01:10:29;;;;;;;0.00;0.00;;;;;;;;;;5021253;28;20212;-79
2021/12/06 01:12:58;;;;;;;0.00;0.00;;;;;;;;;;5019130;28;20575;-72
2021/12/06 01:15:25;;;;;;;0.00;0.00;;;;;;;;;;5018772;28;20228;-75
2021/12/06 01:17:53;;;;;;;0.00;0.00;;;;;;;;;;5016876;28;20551;-74
2021/12/06 01:20:27;;;;;;;0.00;0.00;;;;;;;;;;5013612;28;20201;-73
2021/12/06 01:22:58;;;;;;;0.00;0.00;;;;;;;;;;5018401;28;20199;-74
2021/12/06 01:25:32;;;;;;;0.00;0.00;;;;;;;;;;5025507;28;20282;-74
2021/12/06 01:31:02;;;;;;;0.00;0.00;;;;;;;;;;4998281;28;20330;-73
2021/12/06 01:34:08;;;;;;;0.00;0.00;;;;;;;;;;5023146;28;20200;-77
2021/12/06 01:39:25;;;;;;;0.00;0.00;;;;;;;;;;5026829;28;20707;-77
2021/12/06 01:41:54;;;;;;;0.00;0.00;;;;;;;;;;5020300;28;20228;-76
2021/12/06 01:44:23;;;;;;;0.00;0.00;;;;;;;;;;5023901;28;20246;-75
2021/12/06 01:46:52;;;;;;;0.00;0.00;;;;;;;;;;5022681;28;20207;-74
2021/12/06 01:49:20;;;;;;;0.00;0.00;;;;;;;;;;5022899;28;20208;-75
2021/12/06 01:51:51;;;;;;;0.00;0.00;;;;;;;;;;5022870;28;20214;-74
2021/12/06 01:54:19;;;;;;;0.00;0.00;;;;;;;;;;5026002;28;20236;-74
2021/12/06 01:56:46;;;;;;;0.00;0.00;;;;;;;;;;5022602;28;20200;-77
2021/12/06 01:59:14;;;;;;;0.00;0.00;;;;;;;;;;5023503;28;20231;-73
2021/12/06 02:01:41;;;;;;;0.00;0.00;;;;;;;;;;5024876;28;20216;-77
2021/12/06 02:04:09;;;;;;;0.00;0.00;;;;;;;;;;5022991;28;20245;-76
2021/12/06 02:06:38;;;;;;;0.00;0.00;;;;;;;;;;5021523;28;20208;-75
2021/12/06 02:09:08;;;;;;;0.00;0.00;;;;;;;;;;5025351;28;20208;-75
2021/12/06 02:11:38;;;;;;;0.00;0.00;;;;;;;;;;5026157;28;20624;-76
2021/12/06 02:14:19;;;;;;;0.00;0.00;;;;;;;;;;5024225;28;20258;-75
2021/12/06 02:17:00;;;;;;;1.20;1.20;;;;;;;;;;5024371;28;20684;-80
2021/12/06 02:19:32;;;;;;;0.00;0.00;;;;;;;;;;5022376;28;20903;-76
2021/12/06 02:22:01;;;;;;;0.00;0.00;;;;;;;;;;5021194;28;20207;-75
2021/12/06 02:24:30;;;;;;;0.00;0.00;;;;;;;;;;5021403;28;20197;-75
2021/12/06 02:26:59;;;;;;;0.00;0.00;;;;;;;;;;5016652;28;20219;-76
2021/12/06 02:29:27;;;;;;;0.00;0.00;;;;;;;;;;5023023;28;20215;-75
2021/12/06 02:31:54;;;;;;;0.00;0.00;;;;;;;;;;5022185;28;20204;-77
2021/12/06 02:34:21;;;;;;;0.00;0.00;;;;;;;;;;5021475;28;20192;-75
2021/12/06 02:36:49;;;;;;;0.00;0.00;;;;;;;;;;5021075;28;20237;-75
2021/12/06 02:39:22;;;;;;;0.00;0.00;;;;;;;;;;5024992;28;20238;-78
2021/12/06 02:41:52;;;;;;;0.00;0.00;;;;;;;;;;5024087;28;20310;-77
2021/12/06 02:44:20;;;;;;;0.00;0.00;;;;;;;;;;5023493;28;20216;-77
2021/12/06 02:46:47;;;;;;;0.00;0.00;;;;;;;;;;5023696;28;20197;-73
2021/12/06 02:49:15;;;;;;;0.00;0.00;;;;;;;;;;5022114;28;20208;-78
2021/12/06 02:51:42;;;;;;;0.00;0.00;;;;;;;;;;5023784;28;20206;-77
2021/12/06 02:54:10;;;;;;;0.00;0.00;;;;;;;;;;5021648;28;20211;-75
2021/12/06 02:56:52;;;;;;;0.00;0.00;;;;;;;;;;5028011;28;20283;-76
2021/12/06 02:59:20;;;;;;;0.00;0.00;;;;;;;;;;5024974;28;20227;-74
2021/12/06 03:01:52;;;;;;;0.00;0.00;;;;;;;;;;5028379;28;20204;-75
2021/12/06 03:04:19;;;;;;;0.00;0.00;;;;;;;;;;5030978;28;20554;-77
2021/12/06 03:06:52;;;;;;;2.43;2.33;;;;;;;;;;5028442;28;20212;-76
2021/12/06 03:09:23;;;;;;;0.00;0.00;;;;;;;;;;5029008;28;20200;-75
2021/12/06 03:11:53;;;;;;;0.40;0.40;;;;;;;;;;5031729;28;20211;-75
2021/12/06 03:14:22;;;;;;;0.00;0.00;;;;;;;;;;5027654;28;20222;-75
2021/12/06 03:16:49;;;;;;;0.00;0.00;;;;;;;;;;5029499;28;20204;-75
2021/12/06 03:19:17;;;;;;;0.10;0.10;;;;;;;;;;5030806;28;20665;-75
2021/12/06 03:21:44;;;;;;;0.00;0.00;;;;;;;;;;5030356;28;20677;-75
2021/12/06 03:24:11;;;;;;;0.00;0.00;;;;;;;;;;5029021;28;20203;-74
2021/12/06 03:26:39;;;;;;;0.00;0.00;;;;;;;;;;5027947;28;20208;-74
2021/12/06 03:29:08;;;;;;;0.00;0.00;;;;;;;;;;5028119;28;20649;-75
2021/12/06 03:31:36;;;;;;;0.00;0.00;;;;;;;;;;5022926;28;20212;-75
2021/12/06 03:34:04;;;;;;;0.00;0.00;;;;;;;;;;5029075;28;20212;-75
2021/12/06 03:36:33;;;;;;;0.00;0.00;;;;;;;;;;5029444;28;20578;-75
2021/12/06 03:39:01;;;;;;;0.00;0.00;;;;;;;;;;5027436;28;20231;-76
2021/12/06 03:41:29;;;;;;;0.00;0.00;;;;;;;;;;5028486;28;20207;-75
2021/12/06 03:43:57;;;;;;;0.00;0.00;;;;;;;;;;5027753;28;20200;-76
2021/12/06 03:46:26;;;;;;;0.00;0.00;;;;;;;;;;5027983;28;20200;-77
2021/12/06 03:48:54;;;;;;;0.00;0.00;;;;;;;;;;5027025;28;20211;-76
2021/12/06 03:51:21;;;;;;;0.00;0.00;;;;;;;;;;5029604;28;20200;-75
2021/12/06 03:53:48;;;;;;;0.00;0.00;;;;;;;;;;5028118;28;20205;-76
2021/12/06 03:56:16;;;;;;;0.00;0.00;;;;;;;;;;5027592;28;20670;-76
2021/12/06 03:58:46;;;;;;;0.00;0.00;;;;;;;;;;5026789;28;20227;-76
2021/12/06 04:01:14;;;;;;;0.00;0.00;;;;;;;;;;5028571;28;20203;-75
2021/12/06 04:03:44;;;;;;;0.00;0.00;;;;;;;;;;5027830;28;20204;-76
2021/12/06 04:06:12;;;;;;;0.00;0.00;;;;;;;;;;5027717;28;20204;-75
2021/12/06 04:08:40;;;;;;;0.00;0.00;;;;;;;;;;5030673;28;20204;-74
2021/12/06 04:11:08;;;;;;;0.00;0.00;;;;;;;;;;5026540;28;20211;-76
2021/12/06 04:13:35;;;;;;;0.00;0.00;;;;;;;;;;5025990;28;20200;-75
2021/12/06 04:16:03;;;;;;;0.00;0.00;;;;;;;;;;5030022;28;20549;-75
2021/12/06 04:18:30;;;;;;;0.00;0.00;;;;;;;;;;5029912;28;20252;-75
2021/12/06 04:20:59;;;;;;;0.00;0.00;;;;;;;;;;5026741;28;20204;-75
2021/12/06 04:23:27;;;;;;;0.00;0.00;;;;;;;;;;5024118;28;20200;-75
2021/12/06 04:25:54;;;;;;;0.00;0.00;;;;;;;;;;5020489;28;20903;-75
2021/12/06 04:28:22;;;;;;;0.00;0.00;;;;;;;;;;5019389;28;20664;-77
2021/12/06 04:30:50;;;;;;;0.00;0.00;;;;;;;;;;5019602;28;20216;-75
2021/12/06 04:33:18;;;;;;;0.00;0.00;;;;;;;;;;5016677;28;20205;-76
2021/12/06 04:35:46;;;;;;;3.17;3.00;;;;;;;;;;5017518;28;20208;-77
2021/12/06 04:38:15;;;;;;;0.20;0.20;;;;;;;;;;5016846;28;20223;-75
2021/12/06 04:40:42;;;;;;;0.00;0.00;;;;;;;;;;5014257;28;20243;-76
2021/12/06 04:43:10;;;;;;;0.00;0.00;;;;;;;;;;5017630;28;20604;-75
2021/12/06 04:45:38;;;;;;;0.00;0.00;;;;;;;;;;5015488;28;20583;-75
2021/12/06 04:48:06;;;;;;;0.00;0.00;;;;;;;;;;5019835;28;20212;-75
2021/12/06 04:50:35;;;;;;;0.00;0.00;;;;;;;;;;5020316;28;20207;-76
2021/12/06 04:53:04;;;;;;;0.10;0.10;;;;;;;;;;5018720;28;20208;-75
2021/12/06 04:55:34;;;;;;;0.00;0.00;;;;;;;;;;5020073;28;20204;-75
2021/12/06 04:58:01;;;;;;;0.00;0.00;;;;;;;;;;5021640;28;20193;-76
2021/12/06 05:00:31;;;;;;;0.00;0.00;;;;;;;;;;5022691;28;20224;-75
2021/12/06 05:02:58;;;;;;;0.00;0.00;;;;;;;;;;5021014;28;20205;-76
2021/12/06 05:05:27;;;;;;;0.00;0.00;;;;;;;;;;5025723;28;20208;-77
2021/12/06 05:07:59;;;;;;;0.00;0.00;;;;;;;;;;5024873;28;20192;-76
2021/12/06 05:10:26;;;;;;;0.00;0.00;;;;;;;;;;5025803;28;20205;-76
2021/12/06 05:12:55;;;;;;;0.00;0.00;;;;;;;;;;5024002;28;20295;-75
2021/12/06 05:15:23;;;;;;;0.00;0.00;;;;;;;;;;5023695;28;20546;-76
2021/12/06 05:17:50;;;;;;;0.00;0.00;;;;;;;;;;5024544;28;20208;-76
2021/12/06 05:20:17;;;;;;;0.00;0.00;;;;;;;;;;5022520;28;20708;-76
2021/12/06 05:22:45;;;;;;;0.00;0.00;;;;;;;;;;5023983;28;20673;-75
2021/12/06 05:25:13;;;;;;;0.00;0.00;;;;;;;;;;5024668;28;20210;-81
2021/12/06 05:27:40;;;;;;;0.00;0.00;;;;;;;;;;5026136;28;20212;-73
2021/12/06 05:30:11;;;;;;;0.00;0.00;;;;;;;;;;5023372;28;20291;-74
2021/12/06 05:32:41;;;;;;;0.00;0.00;;;;;;;;;;5025062;28;20204;-74
2021/12/06 05:35:10;;;;;;;0.00;0.00;;;;;;;;;;5022944;28;20841;-75
2021/12/06 05:37:42;;;;;;;0.00;0.00;;;;;;;;;;5023398;28;20207;-75
2021/12/06 05:40:11;;;;;;;0.00;0.00;;;;;;;;;;5021479;28;20240;-77
2021/12/06 05:42:38;;;;;;;0.00;0.00;;;;;;;;;;5024505;28;20281;-75
2021/12/06 05:45:07;;;;;;;0.00;0.00;;;;;;;;;;5022509;28;20212;-77
2021/12/06 05:47:37;;;;;;;0.00;0.00;;;;;;;;;;5018361;28;20550;-77
2021/12/06 05:50:04;;;;;;;0.00;0.00;;;;;;;;;;5016211;28;20962;-78
2021/12/06 05:52:32;;;;;;;0.00;0.00;;;;;;;;;;5021215;28;20223;-75
2021/12/06 05:54:59;;;;;;;0.00;0.00;;;;;;;;;;5023576;28;20209;-75
2021/12/06 05:57:27;;;;;;;0.00;0.00;;;;;;;;;;5021392;28;20207;-76
2021/12/06 05:59:54;;;;;;;0.00;0.00;;;;;;;;;;5024275;28;20236;-74
2021/12/06 06:02:22;;;;;;;0.00;0.00;;;;;;;;;;5022914;28;20209;-74
2021/12/06 06:04:51;;;;;;;0.00;0.00;;;;;;;;;;5021463;28;20204;-75
2021/12/06 06:07:19;;;;;;;0.00;0.00;;;;;;;;;;5023027;28;20204;-74
2021/12/06 06:09:46;;;;;;;0.00;0.00;;;;;;;;;;5021588;28;20254;-75
2021/12/06 06:12:14;;;;;;;0.00;0.00;;;;;;;;;;5022482;28;20208;-75
2021/12/06 06:14:41;;;;;;;0.00;0.00;;;;;;;;;;5022506;28;20212;-77
2021/12/06 06:17:12;;;;;;;0.00;0.00;;;;;;;;;;5022886;28;20246;-73
2021/12/06 06:19:42;;;;;;;0.00;0.00;;;;;;;;;;5020012;28;21009;-74
2021/12/06 06:22:11;;;;;;;0.00;0.00;;;;;;;;;;5022806;28;20227;-73
2021/12/06 06:24:39;;;;;;;0.00;0.00;;;;;;;;;;5023127;28;20201;-74
2021/12/06 06:27:07;;;;;;;0.00;0.00;;;;;;;;;;5021721;28;20201;-74
2021/12/06 06:29:36;;;;;;;0.00;0.00;;;;;;;;;;5022145;28;20283;-76
2021/12/06 06:32:03;;;;;;;0.00;0.00;;;;;;;;;;5027863;28;20719;-75
2021/12/06 06:34:31;;;;;;;0.00;0.00;;;;;;;;;;5027609;28;20554;-73
2021/12/06 06:36:58;;;;;;;0.00;0.00;;;;;;;;;;5019606;28;20208;-76
2021/12/06 06:39:27;;;;;;;0.00;0.00;;;;;;;;;;5032364;28;20227;-73
2021/12/06 06:41:55;;;;;;;0.00;0.00;;;;;;;;;;5029876;28;20236;-73
2021/12/06 06:44:22;;;;;;;0.00;0.00;;;;;;;;;;5029719;28;20573;-73
2021/12/06 06:46:51;;;;;;;0.00;0.00;;;;;;;;;;5030526;28;20577;-75
2021/12/06 06:49:20;;;;;;;0.00;0.00;;;;;;;;;;5022659;28;20208;-74
2021/12/06 06:51:47;;;;;;;0.00;0.00;;;;;;;;;;5020390;28;20654;-75
2021/12/06 06:54:15;;;;;;;0.00;0.00;;;;;;;;;;5019608;28;20208;-75
2021/12/06 06:56:44;;;;;;;0.00;0.00;;;;;;;;;;5018564;28;20207;-75
2021/12/06 06:59:12;;;;;;;0.00;0.00;;;;;;;;;;5016034;28;20201;-76
2021/12/06 07:01:39;;;;;;;0.00;0.00;;;;;;;;;;5018534;28;20232;-74
2021/12/06 07:04:07;;;;;;;0.00;0.00;;;;;;;;;;5022556;28;20689;-75
2021/12/06 07:06:35;;;;;;;0.00;0.00;;;;;;;;;;5021539;28;20856;-75
2021/12/06 07:09:03;;;;;;;0.00;0.00;;;;;;;;;;5018905;28;20208;-75
2021/12/06 07:11:30;;;;;;;0.00;0.00;;;;;;;;;;5021127;28;20200;-76
2021/12/06 07:13:59;;;;;;;0.00;0.00;;;;;;;;;;5022701;28;20204;-75
2021/12/06 07:16:29;;;;;;;0.00;0.00;;;;;;;;;;5022483;28;20212;-75
2021/12/06 07:18:58;;;;;;;0.00;0.00;;;;;;;;;;5020804;28;20208;-76
2021/12/06 07:21:26;;;;;;;0.00;0.00;;;;;;;;;;5022218;28;20775;-75
2021/12/06 07:23:53;;;;;;;0.00;0.00;;;;;;;;;;5017620;28;20204;-74
2021/12/06 07:26:21;;;;;;;0.00;0.00;;;;;;;;;;5018856;28;20204;-75
2021/12/06 07:28:50;;;;;;;0.00;0.00;;;;;;;;;;5021837;28;20222;-74
2021/12/06 07:31:20;;;;;;;0.00;0.00;;;;;;;;;;5022117;28;20204;-74
2021/12/06 07:33:49;;;;;;;0.00;0.00;;;;;;;;;;5019137;28;20204;-76
2021/12/06 07:36:17;;;;;;;0.10;0.10;;;;;;;;;;5021171;28;20197;-75
2021/12/06 07:38:44;;;;;;;0.00;0.00;;;;;;;;;;5021639;28;20192;-75
2021/12/06 07:41:15;;;;;;;0.00;0.00;;;;;;;;;;5025540;28;20701;-74
2021/12/06 07:43:43;;;;;;;0.00;0.00;;;;;;;;;;5028557;28;20223;-75
2021/12/06 07:46:11;;;;;;;0.00;0.00;;;;;;;;;;5031349;28;20212;-74
2021/12/06 07:48:41;;;;;;;0.10;0.10;;;;;;;;;;5028128;28;20212;-74
2021/12/06 07:51:09;;;;;;;0.57;0.57;;;;;;;;;;5027067;28;20204;-74
2021/12/06 07:53:38;;;;;;;3.17;2.87;;;;;;;;;;5029301;28;20201;-75
2021/12/06 07:56:06;;;;;;;0.10;0.10;;;;;;;;;;5029656;28;20228;-75
2021/12/06 07:58:34;;;;;;;0.50;0.50;;;;;;;;;;5029315;28;20204;-75
2021/12/06 08:01:01;;;;;;;0.80;0.80;;;;;;;;;;5028061;28;20236;-75
2021/12/06 08:03:30;;;;;;;0.00;0.00;;;;;;;;;;5022795;28;20200;-77
2021/12/06 08:06:00;;;;;;;0.10;0.10;;;;;;;;;;5024717;28;20212;-75
2021/12/06 08:08:28;;;;;;;0.23;0.23;;;;;;;;;;5017689;28;20604;-76
2021/12/06 08:10:56;;;;;;;0.00;0.00;;;;;;;;;;5024359;28;20227;-76
2021/12/06 08:13:25;;;;;;;0.00;0.00;;;;;;;;;;5022431;28;20215;-75
2021/12/06 08:15:53;;;;;;;0.00;0.00;;;;;;;;;;5024677;28;20208;-76
2021/12/06 08:18:21;;;;;;;0.00;0.00;;;;;;;;;;5026065;28;20204;-75
2021/12/06 08:20:48;;;;;;;0.00;0.00;;;;;;;;;;5030039;28;20231;-76
2021/12/06 08:23:17;;;;;;;0.70;0.60;;;;;;;;;;5022571;28;20208;-75
2021/12/06 08:25:46;;;;;;;0.70;0.70;;;;;;;;;;5018879;28;20916;-72
2021/12/06 08:28:14;;;;;;;0.47;0.47;;;;;;;;;;5017612;28;20266;-76
2021/12/06 08:30:42;;;;;;;2.17;1.50;;;;;;;;;;5019403;28;20204;-72
2021/12/06 08:33:09;;;;;;;0.83;0.83;;;;;;;;;;5022413;28;20602;-72
2021/12/06 08:35:38;;;;;;;0.13;0.13;;;;;;;;;;5028092;28;20613;-76
2021/12/06 08:38:06;;;;;;;0.13;0.13;;;;;;;;;;5023184;28;20213;-72
2021/12/06 08:40:35;;;;;;;3.07;2.83;;;;;;;;;;5023493;28;20243;-73
2021/12/06 08:43:03;;;;;;;0.83;0.83;;;;;;;;;;5029439;28;20232;-74
2021/12/06 08:45:31;;;;;;;1.10;1.00;;;;;;;;;;5020466;28;20216;-76
2021/12/06 08:47:59;;;;;;;4.40;0.60;;;;;;;;;;5019722;28;20204;-74
2021/12/06 08:50:28;;;;;;;0.00;0.00;;;;;;;;;;5019994;28;20208;-73
2021/12/06 08:52:56;;;;;;;1.27;1.17;;;;;;;;;;5019155;28;20228;-73
2021/12/06 08:55:24;;;;;;;2.27;1.20;;;;;;;;;;5022624;28;20208;-73
2021/12/06 08:57:53;;;;;;;0.00;0.00;;;;;;;;;;5024151;28;20211;-74
2021/12/06 09:00:22;;;;;;;0.10;0.10;;;;;;;;;;5021356;28;20321;-76
2021/12/06 09:02:49;;;;;;;0.57;0.57;;;;;;;;;;5019446;28;20208;-74
2021/12/06 09:05:17;;;;;;;0.00;0.00;;;;;;;;;;5019215;28;20200;-78
2021/12/06 09:07:44;;;;;;;4.67;4.27;;;;;;;;;;5020258;28;20692;-75
2021/12/06 09:10:12;;;;;;;0.73;0.73;;;;;;;;;;5020639;28;20207;-75
2021/12/06 09:12:40;;;;;;;0.80;0.80;;;;;;;;;;5020197;28;21355;-74
2021/12/06 09:15:11;;;;;;;0.10;0.10;;;;;;;;;;5021750;28;20204;-74
2021/12/06 09:17:38;;;;;;;0.00;0.00;;;;;;;;;;5024243;28;20197;-74
2021/12/06 09:20:08;;;;;;;0.00;0.00;;;;;;;;;;5021139;28;20208;-76
2021/12/06 09:22:36;;;;;;;4.17;3.60;;;;;;;;;;5019135;28;20215;-79
2021/12/06 09:25:04;;;;;;;0.67;0.67;;;;;;;;;;5017784;28;20204;-74
2021/12/06 09:27:33;;;;;;;0.00;0.00;;;;;;;;;;5018941;28;20808;-73
2021/12/06 09:30:00;;;;;;;0.00;0.00;;;;;;;;;;5020917;28;20626;-75
2021/12/06 09:32:29;;;;;;;0.13;0.13;;;;;;;;;;5020098;28;20577;-74
2021/12/06 09:34:58;;;;;;;8.03;7.30;;;;;;;;;;5018544;28;20221;-75
2021/12/06 09:37:26;;;;;;;0.60;0.60;;;;;;;;;;5019433;28;20299;-75
2021/12/06 09:39:56;;;;;;;0.10;0.10;;;;;;;;;;5017258;28;20670;-75
2021/12/06 09:42:23;;;;;;;1.57;1.47;;;;;;;;;;5018432;28;20657;-76
2021/12/06 09:44:50;;;;;;;0.10;0.10;;;;;;;;;;5015462;28;20213;-74
2021/12/06 09:47:18;;;;;;;0.00;0.00;;;;;;;;;;5026702;28;20565;-75
2021/12/06 09:49:47;;;;;;;1.03;0.87;;;;;;;;;;5028805;28;20212;-76
2021/12/06 09:52:15;;;;;;;0.10;0.10;;;;;;;;;;5028214;28;20208;-73
2021/12/06 09:54:43;;;;;;;1.30;1.30;;;;;;;;;;5029641;28;20299;-75
2021/12/06 09:57:12;;;;;;;1.03;0.83;;;;;;;;;;5028883;28;20204;-71
2021/12/06 09:59:42;;;;;;;0.27;0.27;;;;;;;;;;5028692;28;20373;-72
2021/12/06 10:02:10;;;;;;;0.00;0.00;;;;;;;;;;5020577;28;20231;-78
2021/12/06 10:04:41;;;;;;;0.13;0.13;;;;;;;;;;5019689;28;20215;-75
2021/12/06 10:07:10;;;;;;;0.00;0.00;;;;;;;;;;5022517;28;20254;-75
2021/12/06 10:09:38;;;;;;;1.17;0.97;;;;;;;;;;5021227;28;20631;-77
2021/12/06 10:12:06;;;;;;;0.60;0.60;;;;;;;;;;5021335;28;20203;-75
2021/12/06 10:14:35;;;;;;;1.23;1.03;;;;;;;;;;5021688;28;20660;-76
2021/12/06 10:17:03;;;;;;;0.00;0.00;;;;;;;;;;5020211;28;20299;-77
2021/12/06 10:19:30;;;;;;;0.20;0.20;;;;;;;;;;5021530;28;20286;-78
2021/12/06 10:21:58;;;;;;;0.10;0.10;;;;;;;;;;5020578;28;20231;-78
2021/12/06 10:24:28;;;;;;;0.40;0.40;;;;;;;;;;5019276;28;20211;-79
2021/12/06 10:27:04;;;;;;;1.30;0.60;;;;;;;;;;5025783;28;20558;-78
2021/12/06 10:29:38;;;;;;;0.00;0.00;;;;;;;;;;5029298;28;20196;-79
2021/12/06 10:32:11;;;;;;;0.00;0.00;;;;;;;;;;5026153;28;20204;-77
2021/12/06 10:34:38;;;;;;;1.23;1.17;;;;;;;;;;5025620;28;20258;-78
2021/12/06 10:37:06;;;;;;;0.00;0.00;;;;;;;;;;5027364;28;20699;-78
2021/12/06 10:39:38;;;;;;;0.40;0.40;;;;;;;;;;5027834;28;20542;-78
2021/12/06 10:42:05;;;;;;;1.17;1.17;;;;;;;;;;5025588;28;20245;-80
2021/12/06 10:44:32;;;;;;;0.10;0.10;;;;;;;;;;5023644;28;20208;-78
2021/12/06 10:47:00;;;;;;;0.10;0.10;;;;;;;;;;5021790;28;20666;-77
2021/12/06 10:49:28;;;;;;;1.13;0.67;;;;;;;;;;5027027;28;20200;-77
2021/12/06 10:51:56;;;;;;;1.10;1.10;;;;;;;;;;5045239;28;20235;-76
2021/12/06 10:54:34;;;;;;;0.10;0.10;;;;;;;;;;5029005;28;20568;-76
2021/12/06 10:57:07;;;;;;;0.10;0.10;;;;;;;;;;5024331;28;20204;-78
2021/12/06 10:59:39;;;;;;;2.07;1.93;;;;;;;;;;5027841;28;20657;-78
2021/12/06 11:02:08;;;;;;;2.00;1.90;;;;;;;;;;5043674;28;20224;-73
2021/12/06 11:04:35;;;;;;;0.83;0.83;;;;;;;;;;5028824;28;20314;-77
2021/12/06 11:07:06;;;;;;;1.30;1.03;;;;;;;;;;5022325;28;20196;-75
2021/12/06 11:09:35;;;;;;;2.57;2.37;;;;;;;;;;5017878;28;21075;-76
2021/12/06 11:12:04;;;;;;;0.77;0.77;;;;;;;;;;5017988;28;20196;-76
2021/12/06 11:14:33;;;;;;;2.17;2.03;;;;;;;;;;5016921;28;20661;-75
2021/12/06 11:17:01;;;;;;;2.67;2.20;;;;;;;;;;5016578;28;20203;-75
2021/12/06 11:19:31;;;;;;;0.10;0.10;;;;;;;;;;5021417;28;20673;-75
2021/12/06 11:22:00;;;;;;;5.37;3.43;;;;;;;;;;5025534;28;20704;-75
2021/12/06 11:24:28;;;;;;;0.67;0.67;;;;;;;;;;5021839;28;20204;-75
2021/12/06 11:26:59;;;;;;;2.37;1.80;;;;;;;;;;5023133;28;20212;-74
2021/12/06 11:29:29;;;;;;;5.70;2.10;;;;;;;;;;5021675;28;20673;-75
2021/12/06 11:31:58;;;;;;;1.20;1.00;;;;;;;;;;5022121;28;20206;-75
2021/12/06 11:34:27;;;;;;;1.60;1.50;;;;;;;;;;5020450;28;20677;-75
2021/12/06 11:36:55;;;;;;;3.30;2.93;;;;;;;;;;5019449;28;20700;-76
2021/12/06 11:39:23;;;;;;;2.20;1.60;;;;;;;;;;5021212;28;20201;-76
2021/12/06 11:41:53;;;;;;;1.27;1.17;;;;;;;;;;5023118;28;20236;-75
2021/12/06 11:44:24;;;;;;;2.53;1.80;;;;;;;;;;5024158;28;20220;-75
2021/12/06 11:47:01;;;;;;;1.80;1.03;;;;;;;;;;5024692;28;20203;-74
2021/12/06 11:49:31;;;;;;;1.87;1.30;;;;;;;;;;5027655;28;20211;-75
2021/12/06 11:51:59;;;;;;;0.00;0.00;;;;;;;;;;5026426;28;20203;-75
2021/12/06 11:54:26;;;;;;;0.30;0.30;;;;;;;;;;5026063;28;20203;-75
2021/12/06 11:56:54;;;;;;;0.30;0.30;;;;;;;;;;5025371;28;20204;-75
2021/12/06 11:59:22;;;;;;;1.70;1.47;;;;;;;;;;5027357;28;20207;-74
2021/12/06 12:01:51;;;;;;;0.10;0.10;;;;;;;;;;5025055;28;20231;-75
2021/12/06 12:04:21;;;;;;;0.00;0.00;;;;;;;;;;5024274;28;20219;-75
2021/12/06 12:06:49;;;;;;;0.83;0.77;;;;;;;;;;5026245;28;20215;-76
2021/12/06 12:09:21;;;;;;;2.90;2.70;;;;;;;;;;5027050;28;20212;-76
2021/12/06 12:11:57;;;;;;;1.70;1.70;;;;;;;;;;5025293;28;20200;-74
2021/12/06 12:14:26;;;;;;;2.53;2.23;;;;;;;;;;5025354;28;20561;-75
2021/12/06 12:16:54;;;;;;;2.07;1.53;;;;;;;;;;5025682;28;20208;-77
2021/12/06 12:19:23;;;;;;;0.73;0.73;;;;;;;;;;5024597;28;20211;-76
2021/12/06 12:21:51;;;;;;;0.00;0.00;;;;;;;;;;5026101;28;20232;-76
2021/12/06 12:24:18;;;;;;;0.00;0.00;;;;;;;;;;5025709;28;20296;-74
2021/12/06 12:26:56;;;;;;;0.10;0.10;;;;;;;;;;5025424;28;20236;-75
2021/12/06 12:29:27;;;;;;;0.10;0.10;;;;;;;;;;5025108;28;20279;-74
2021/12/06 12:31:57;;;;;;;2.87;2.67;;;;;;;;;;5026567;28;20283;-75
2021/12/06 12:34:28;;;;;;;2.27;2.07;;;;;;;;;;5024058;28;20212;-74
2021/12/06 12:36:55;;;;;;;4.27;2.17;;;;;;;;;;5024386;28;20208;-74
2021/12/06 12:39:23;;;;;;;1.33;1.33;;;;;;;;;;5025721;28;20730;-75
2021/12/06 12:41:52;;;;;;;5.67;4.87;;;;;;;;;;5024843;28;20323;-74
2021/12/06 12:44:21;;;;;;;5.60;3.73;;;;;;;;;;5019003;28;20669;-76
2021/12/06 12:46:50;;;;;;;3.87;3.57;;;;;;;;;;5014726;28;20595;-74
2021/12/06 12:49:18;;;;;;;3.53;2.17;;;;;;;;;;5015338;28;20212;-78
2021/12/06 12:51:50;;;;;;;2.20;2.00;;;;;;;;;;5016907;28;20703;-78
2021/12/06 12:54:18;;;;;;;0.53;0.53;;;;;;;;;;5017174;28;20217;-76
2021/12/06 12:56:46;;;;;;;0.37;0.37;;;;;;;;;;5015528;28;20208;-75
2021/12/06 12:59:23;;;;;;;3.73;2.13;;;;;;;;;;5018463;28;20223;-77
2021/12/06 13:02:05;;;;;;;1.97;1.83;;;;;;;;;;5017334;28;20231;-78
2021/12/06 13:05:00;;;;;;;7.67;4.90;;;;;;;;;;5008617;28;20218;-76
2021/12/06 13:07:30;;;;;;;0.83;0.83;;;;;;;;;;5015586;28;20193;-77
2021/12/06 13:09:58;;;;;;;1.43;1.33;;;;;;;;;;5017326;28;20192;-76
2021/12/06 13:12:31;;;;;;;3.93;3.00;;;;;;;;;;5018705;28;20576;-76
2021/12/06 13:15:11;;;;;;;5.67;3.40;;;;;;;;;;5018743;28;20216;-76
2021/12/06 13:17:46;;;;;;;7.63;4.77;;;;;;;;;;5019369;28;20258;-75
2021/12/06 13:20:17;;;;;;;4.50;3.70;;;;;;;;;;5015938;28;20208;-75
2021/12/06 13:22:48;;;;;;;2.97;2.73;;;;;;;;;;5018976;28;20705;-77
2021/12/06 13:25:16;;;;;;;5.37;4.13;;;;;;;;;;5021927;28;20211;-76
2021/12/06 13:27:44;;;;;;;5.77;4.90;;;;;;;;;;5022514;28;20574;-73
2021/12/06 13:30:18;;;;;;;2.00;1.90;;;;;;;;;;5020738;28;20192;-74
2021/12/06 13:32:48;;;;;;;2.17;2.07;;;;;;;;;;5021243;28;20200;-75
2021/12/06 13:35:31;;;;;;;1.77;1.67;;;;;;;;;;5020573;28;20204;-75
2021/12/06 13:38:11;;;;;;;11.13;5.00;;;;;;;;;;5020066;28;20213;-75
2021/12/06 13:40:41;;;;;;;5.37;3.33;;;;;;;;;;5018909;28;20251;-77
2021/12/06 13:43:10;;;;;;;11.80;3.83;;;;;;;;;;5018330;28;20228;-76
2021/12/06 13:45:39;;;;;;;9.07;4.77;;;;;;;;;;5021549;28;20227;-75
2021/12/06 13:48:11;;;;;;;2.00;1.83;;;;;;;;;;5022551;28;20327;-76
2021/12/06 13:50:39;;;;;;;10.20;4.50;;;;;;;;;;5019870;28;20196;-77
2021/12/06 13:53:22;;;;;;;3.30;3.00;;;;;;;;;;5018854;28;20205;-79
2021/12/06 13:55:52;;;;;;;4.47;1.97;;;;;;;;;;5020155;28;20218;-80
2021/12/06 13:58:20;;;;;;;4.30;3.80;;;;;;;;;;5021354;28;20207;-77
2021/12/06 14:00:48;;;;;;;3.57;3.10;;;;;;;;;;5019069;28;20250;-77
2021/12/06 14:03:18;;;;;;;5.97;3.10;;;;;;;;;;5020413;28;20228;-83
2021/12/06 14:05:47;;;;;;;2.73;2.00;;;;;;;;;;5021116;28;20208;-77
2021/12/06 14:08:16;;;;;;;2.27;2.17;;;;;;;;;;5022017;28;20231;-80
2021/12/06 14:10:43;;;;;;;1.97;1.87;;;;;;;;;;5020066;28;20215;-83
2021/12/06 14:13:12;;;;;;;2.10;1.50;;;;;;;;;;5020545;28;20200;-77
2021/12/06 14:15:48;;;;;;;1.90;1.73;;;;;;;;;;5021118;28;20208;-71
2021/12/06 14:18:17;;;;;;;4.17;1.67;;;;;;;;;;5022571;28;20672;-75
2021/12/06 14:20:49;;;;;;;2.63;2.43;;;;;;;;;;5018482;28;20200;-72
2021/12/06 14:23:17;;;;;;;2.03;1.90;;;;;;;;;;5019923;28;20227;-71
2021/12/06 14:25:50;;;;;;;4.97;4.20;;;;;;;;;;5022686;28;20216;-72
2021/12/06 14:28:20;;;;;;;0.70;0.70;;;;;;;;;;5026549;28;20196;-71
2021/12/06 14:30:47;;;;;;;5.00;3.57;;;;;;;;;;5027737;28;20197;-73
2021/12/06 14:33:16;;;;;;;0.40;0.40;;;;;;;;;;5022666;28;20209;-72
2021/12/06 14:35:44;;;;;;;7.50;4.27;;;;;;;;;;5021490;28;20258;-72
2021/12/06 14:38:12;;;;;;;2.83;2.63;;;;;;;;;;5021689;28;20353;-72
2021/12/06 14:40:39;;;;;;;1.40;1.30;;;;;;;;;;5020885;28;20196;-73
2021/12/06 14:43:11;;;;;;;2.70;2.50;;;;;;;;;;5020980;28;20240;-72
2021/12/06 14:45:41;;;;;;;5.07;2.60;;;;;;;;;;5019170;28;20212;-74
2021/12/06 14:48:15;;;;;;;0.40;0.37;;;;;;;;;;5020505;28;20200;-73
2021/12/06 14:51:01;;;;;;;2.47;2.23;;;;;;;;;;5022720;28;20212;-73
2021/12/06 14:53:37;;;;;;;1.70;1.60;;;;;;;;;;5022935;28;20670;-74
2021/12/06 14:56:21;;;;;;;3.23;1.77;;;;;;;;;;5020766;28;20609;-73
2021/12/06 14:58:49;;;;;;;3.03;1.97;;;;;;;;;;5021974;28;20209;-72
2021/12/06 15:01:21;;;;;;;0.70;0.70;;;;;;;;;;5022426;28;20200;-72